sensor_id;sensor_type;location;lat;lon;timestamp;P1;durP1;ratioP1;P2;durP2;ratioP2
28714;SDS011;15886;49.170;14.572;2022-10-16T00:31:49;12.85;;;6.85;;
28714;SDS011;15886;49.170;14.572;2022-10-16T00:40:02;9.03;;;6.23;;
28714;SDS011;15886;49.170;14.572;2022-10-16T01:02:42;11.02;;;4.88;;
28714;SDS011;15886;49.170;14.572;2022-10-16T01:08:34;18.45;;;5.70;;
28714;SDS011;15886;49.170;14.572;2022-10-16T01:39:04;6.50;;;4.10;;
28714;SDS011;15886;49.170;14.572;2022-10-16T01:41:44;10.80;;;4.40;;
28714;SDS011;15886;49.170;14.572;2022-10-16T01:44:34;11.82;;;4.50;;
28714;SDS011;15886;49.170;14.572;2022-10-16T01:50:06;9.10;;;4.35;;
28714;SDS011;15886;49.170;14.572;2022-10-16T01:56:38;8.10;;;4.47;;
28714;SDS011;15886;49.170;14.572;2022-10-16T02:00:23;5.60;;;4.28;;
28714;SDS011;15886;49.170;14.572;2022-10-16T02:03:58;9.35;;;4.85;;
28714;SDS011;15886;49.170;14.572;2022-10-16T02:06:53;7.97;;;4.65;;
28714;SDS011;15886;49.170;14.572;2022-10-16T02:09:51;7.72;;;4.78;;
28714;SDS011;15886;49.170;14.572;2022-10-16T06:33:38;9.07;;;4.22;;
28714;SDS011;15886;49.170;14.572;2022-10-16T06:39:50;6.70;;;3.85;;
28714;SDS011;15886;49.170;14.572;2022-10-16T06:42:57;8.93;;;5.72;;
28714;SDS011;15886;49.170;14.572;2022-10-16T06:45:26;12.68;;;5.22;;
28714;SDS011;15886;49.170;14.572;2022-10-16T06:47:59;13.40;;;6.32;;
28714;SDS011;15886;49.170;14.572;2022-10-16T07:02:49;11.38;;;6.78;;
28714;SDS011;15886;49.170;14.572;2022-10-16T07:06:03;14.25;;;7.03;;
28714;SDS011;15886;49.170;14.572;2022-10-16T07:08:46;13.55;;;6.18;;
28714;SDS011;15886;49.170;14.572;2022-10-16T07:12:03;8.18;;;5.20;;
28714;SDS011;15886;49.170;14.572;2022-10-16T07:18:33;15.88;;;8.25;;
28714;SDS011;15886;49.170;14.572;2022-10-16T07:23:54;15.63;;;6.20;;
28714;SDS011;15886;49.170;14.572;2022-10-16T07:26:52;11.35;;;5.88;;
28714;SDS011;15886;49.170;14.572;2022-10-16T07:29:24;10.00;;;4.80;;
28714;SDS011;15886;49.170;14.572;2022-10-16T07:32:18;6.05;;;4.35;;
28714;SDS011;15886;49.170;14.572;2022-10-16T07:35:29;6.00;;;3.95;;
28714;SDS011;15886;49.170;14.572;2022-10-16T07:37:57;7.65;;;4.10;;
28714;SDS011;15886;49.170;14.572;2022-10-16T07:40:25;5.38;;;4.05;;
28714;SDS011;15886;49.170;14.572;2022-10-16T07:42:59;9.88;;;4.38;;
28714;SDS011;15886;49.170;14.572;2022-10-16T07:45:29;10.18;;;5.00;;
28714;SDS011;15886;49.170;14.572;2022-10-16T07:47:58;7.93;;;5.10;;
28714;SDS011;15886;49.170;14.572;2022-10-16T07:50:26;22.33;;;10.00;;
28714;SDS011;15886;49.170;14.572;2022-10-16T07:52:56;18.05;;;7.47;;
28714;SDS011;15886;49.170;14.572;2022-10-16T07:55:25;17.17;;;7.10;;
28714;SDS011;15886;49.170;14.572;2022-10-16T07:57:54;4.75;;;3.65;;
28714;SDS011;15886;49.170;14.572;2022-10-16T08:00:28;7.05;;;4.30;;
28714;SDS011;15886;49.170;14.572;2022-10-16T08:18:16;15.70;;;5.72;;
28714;SDS011;15886;49.170;14.572;2022-10-16T08:20:44;20.20;;;7.15;;
28714;SDS011;15886;49.170;14.572;2022-10-16T08:23:13;24.52;;;8.23;;
28714;SDS011;15886;49.170;14.572;2022-10-16T08:25:41;20.20;;;9.32;;
28714;SDS011;15886;49.170;14.572;2022-10-16T08:28:11;15.95;;;8.23;;
28714;SDS011;15886;49.170;14.572;2022-10-16T08:30:40;12.45;;;6.10;;
28714;SDS011;15886;49.170;14.572;2022-10-16T08:33:10;6.93;;;4.20;;
28714;SDS011;15886;49.170;14.572;2022-10-16T08:35:51;6.70;;;3.90;;
28714;SDS011;15886;49.170;14.572;2022-10-16T08:38:21;11.43;;;4.38;;
28714;SDS011;15886;49.170;14.572;2022-10-16T08:43:57;8.27;;;4.32;;
28714;SDS011;15886;49.170;14.572;2022-10-16T08:50:02;4.22;;;3.58;;
28714;SDS011;15886;49.170;14.572;2022-10-16T08:52:57;3.67;;;3.20;;
28714;SDS011;15886;49.170;14.572;2022-10-16T08:55:52;7.07;;;4.15;;
28714;SDS011;15886;49.170;14.572;2022-10-16T08:58:49;6.55;;;3.30;;
28714;SDS011;15886;49.170;14.572;2022-10-16T09:01:21;4.45;;;3.20;;
28714;SDS011;15886;49.170;14.572;2022-10-16T09:07:32;6.85;;;4.22;;
28714;SDS011;15886;49.170;14.572;2022-10-16T09:12:48;6.97;;;4.28;;
28714;SDS011;15886;49.170;14.572;2022-10-16T09:15:38;5.78;;;3.80;;
28714;SDS011;15886;49.170;14.572;2022-10-16T09:27:33;11.00;;;6.07;;
28714;SDS011;15886;49.170;14.572;2022-10-16T09:32:55;6.95;;;5.25;;
28714;SDS011;15886;49.170;14.572;2022-10-16T09:38:47;6.85;;;4.57;;
28714;SDS011;15886;49.170;14.572;2022-10-16T09:56:38;8.38;;;3.92;;
28714;SDS011;15886;49.170;14.572;2022-10-16T10:17:52;9.65;;;5.03;;
28714;SDS011;15886;49.170;14.572;2022-10-16T10:27:03;4.97;;;2.92;;
28714;SDS011;15886;49.170;14.572;2022-10-16T10:36:54;5.10;;;2.65;;
28714;SDS011;15886;49.170;14.572;2022-10-16T10:39:30;4.45;;;2.50;;
28714;SDS011;15886;49.170;14.572;2022-10-16T10:45:22;3.00;;;2.00;;
28714;SDS011;15886;49.170;14.572;2022-10-16T10:50:30;4.10;;;2.45;;
28714;SDS011;15886;49.170;14.572;2022-10-16T10:53:18;4.18;;;1.80;;
28714;SDS011;15886;49.170;14.572;2022-10-16T11:01:16;2.17;;;1.48;;
28714;SDS011;15886;49.170;14.572;2022-10-16T11:04:01;7.55;;;1.98;;
28714;SDS011;15886;49.170;14.572;2022-10-16T11:06:41;2.53;;;1.60;;
28714;SDS011;15886;49.170;14.572;2022-10-16T11:09:18;6.53;;;1.60;;
28714;SDS011;15886;49.170;14.572;2022-10-16T11:11:49;4.55;;;1.60;;
28714;SDS011;15886;49.170;14.572;2022-10-16T11:14:26;3.40;;;2.13;;
28714;SDS011;15886;49.170;14.572;2022-10-16T11:16:56;3.00;;;1.88;;
28714;SDS011;15886;49.170;14.572;2022-10-16T11:22:06;5.55;;;2.65;;
28714;SDS011;15886;49.170;14.572;2022-10-16T11:27:36;3.45;;;1.60;;
28714;SDS011;15886;49.170;14.572;2022-10-16T11:30:22;4.57;;;1.63;;
28714;SDS011;15886;49.170;14.572;2022-10-16T11:35:47;3.88;;;1.13;;
28714;SDS011;15886;49.170;14.572;2022-10-16T11:40:51;4.95;;;1.33;;
28714;SDS011;15886;49.170;14.572;2022-10-16T11:43:25;3.90;;;1.27;;
28714;SDS011;15886;49.170;14.572;2022-10-16T11:45:55;2.60;;;1.73;;
28714;SDS011;15886;49.170;14.572;2022-10-16T11:56:30;4.43;;;1.30;;
28714;SDS011;15886;49.170;14.572;2022-10-16T11:59:01;2.03;;;1.15;;
28714;SDS011;15886;49.170;14.572;2022-10-16T12:01:38;3.00;;;1.05;;
28714;SDS011;15886;49.170;14.572;2022-10-16T12:06:52;4.72;;;1.35;;
28714;SDS011;15886;49.170;14.572;2022-10-16T12:11:51;3.60;;;1.20;;
28714;SDS011;15886;49.170;14.572;2022-10-16T12:17:00;3.50;;;1.30;;
28714;SDS011;15886;49.170;14.572;2022-10-16T12:19:29;1.88;;;0.98;;
28714;SDS011;15886;49.170;14.572;2022-10-16T12:21:59;3.90;;;0.98;;
28714;SDS011;15886;49.170;14.572;2022-10-16T12:26:56;3.80;;;0.90;;
28714;SDS011;15886;49.170;14.572;2022-10-16T12:29:31;4.28;;;1.25;;
28714;SDS011;15886;49.170;14.572;2022-10-16T12:32:01;1.60;;;0.73;;
28714;SDS011;15886;49.170;14.572;2022-10-16T12:37:08;1.93;;;0.80;;
28714;SDS011;15886;49.170;14.572;2022-10-16T12:39:38;1.42;;;0.82;;
28714;SDS011;15886;49.170;14.572;2022-10-16T12:47:51;3.17;;;1.15;;
28714;SDS011;15886;49.170;14.572;2022-10-16T12:50:25;3.63;;;0.68;;
28714;SDS011;15886;49.170;14.572;2022-10-16T12:52:54;2.30;;;0.57;;
28714;SDS011;15886;49.170;14.572;2022-10-16T12:55:23;0.63;;;0.55;;
28714;SDS011;15886;49.170;14.572;2022-10-16T13:31:22;1.88;;;0.50;;
28714;SDS011;15886;49.170;14.572;2022-10-16T13:34:27;1.65;;;1.23;;
28714;SDS011;15886;49.170;14.572;2022-10-16T13:37:16;1.13;;;0.90;;
28714;SDS011;15886;49.170;14.572;2022-10-16T13:39:45;5.18;;;1.65;;
28714;SDS011;15886;49.170;14.572;2022-10-16T13:42:24;2.67;;;0.82;;
28714;SDS011;15886;49.170;14.572;2022-10-16T13:48:23;1.30;;;0.70;;
28714;SDS011;15886;49.170;14.572;2022-10-16T13:51:22;3.90;;;1.10;;
28714;SDS011;15886;49.170;14.572;2022-10-16T13:54:14;1.30;;;0.90;;
28714;SDS011;15886;49.170;14.572;2022-10-16T13:56:44;2.63;;;0.70;;
28714;SDS011;15886;49.170;14.572;2022-10-16T13:59:33;1.60;;;1.10;;
28714;SDS011;15886;49.170;14.572;2022-10-16T14:02:05;1.80;;;0.98;;
28714;SDS011;15886;49.170;14.572;2022-10-16T14:04:37;1.33;;;0.63;;
28714;SDS011;15886;49.170;14.572;2022-10-16T14:07:11;3.15;;;0.90;;
28714;SDS011;15886;49.170;14.572;2022-10-16T14:09:47;3.10;;;1.10;;
28714;SDS011;15886;49.170;14.572;2022-10-16T14:12:15;3.28;;;1.20;;
28714;SDS011;15886;49.170;14.572;2022-10-16T14:14:51;1.85;;;1.33;;
28714;SDS011;15886;49.170;14.572;2022-10-16T14:19:53;1.88;;;1.40;;
28714;SDS011;15886;49.170;14.572;2022-10-16T14:24:54;2.28;;;1.40;;
28714;SDS011;15886;49.170;14.572;2022-10-16T14:27:28;3.05;;;1.02;;
28714;SDS011;15886;49.170;14.572;2022-10-16T14:32:35;5.05;;;1.02;;
28714;SDS011;15886;49.170;14.572;2022-10-16T14:35:11;1.67;;;0.80;;
28714;SDS011;15886;49.170;14.572;2022-10-16T14:37:53;12.30;;;1.00;;
28714;SDS011;15886;49.170;14.572;2022-10-16T14:40:23;2.42;;;0.50;;
28714;SDS011;15886;49.170;14.572;2022-10-16T14:42:52;0.95;;;0.60;;
28714;SDS011;15886;49.170;14.572;2022-10-16T14:45:22;1.25;;;0.70;;
28714;SDS011;15886;49.170;14.572;2022-10-16T14:47:54;1.67;;;0.77;;
28714;SDS011;15886;49.170;14.572;2022-10-16T14:50:23;0.90;;;0.65;;
28714;SDS011;15886;49.170;14.572;2022-10-16T14:52:54;1.50;;;0.70;;
28714;SDS011;15886;49.170;14.572;2022-10-16T14:55:25;1.27;;;0.60;;
28714;SDS011;15886;49.170;14.572;2022-10-16T14:57:53;1.00;;;0.90;;
28714;SDS011;15886;49.170;14.572;2022-10-16T15:00:23;3.45;;;0.80;;
28714;SDS011;15886;49.170;14.572;2022-10-16T15:02:52;1.50;;;0.70;;
28714;SDS011;15886;49.170;14.572;2022-10-16T15:05:24;0.80;;;0.70;;
28714;SDS011;15886;49.170;14.572;2022-10-16T15:07:54;2.05;;;0.80;;
28714;SDS011;15886;49.170;14.572;2022-10-16T15:10:24;1.33;;;0.60;;
28714;SDS011;15886;49.170;14.572;2022-10-16T15:12:53;1.58;;;0.77;;
28714;SDS011;15886;49.170;14.572;2022-10-16T15:15:35;1.92;;;0.68;;
28714;SDS011;15886;49.170;14.572;2022-10-16T15:18:04;4.85;;;0.77;;
28714;SDS011;15886;49.170;14.572;2022-10-16T15:20:33;4.00;;;0.80;;
28714;SDS011;15886;49.170;14.572;2022-10-16T15:23:06;2.80;;;0.88;;
28714;SDS011;15886;49.170;14.572;2022-10-16T15:25:48;1.88;;;1.05;;
28714;SDS011;15886;49.170;14.572;2022-10-16T15:28:17;15.45;;;1.40;;
28714;SDS011;15886;49.170;14.572;2022-10-16T15:30:46;2.55;;;0.95;;
28714;SDS011;15886;49.170;14.572;2022-10-16T15:33:20;3.25;;;0.93;;
28714;SDS011;15886;49.170;14.572;2022-10-16T15:35:52;7.97;;;1.27;;
28714;SDS011;15886;49.170;14.572;2022-10-16T15:38:36;4.47;;;1.30;;
28714;SDS011;15886;49.170;14.572;2022-10-16T15:41:09;3.38;;;1.10;;
28714;SDS011;15886;49.170;14.572;2022-10-16T15:44:54;2.08;;;1.27;;
28714;SDS011;15886;49.170;14.572;2022-10-16T15:47:29;4.75;;;1.30;;
28714;SDS011;15886;49.170;14.572;2022-10-16T15:49:59;4.07;;;1.40;;
28714;SDS011;15886;49.170;14.572;2022-10-16T15:52:29;5.03;;;1.40;;
28714;SDS011;15886;49.170;14.572;2022-10-16T15:54:59;2.10;;;1.55;;
28714;SDS011;15886;49.170;14.572;2022-10-16T15:57:28;2.88;;;1.50;;
28714;SDS011;15886;49.170;14.572;2022-10-16T16:02:42;5.38;;;1.50;;
28714;SDS011;15886;49.170;14.572;2022-10-16T16:05:11;11.43;;;1.60;;
28714;SDS011;15886;49.170;14.572;2022-10-16T16:07:41;7.97;;;1.73;;
28714;SDS011;15886;49.170;14.572;2022-10-16T16:10:10;7.18;;;1.83;;
28714;SDS011;15886;49.170;14.572;2022-10-16T16:12:40;14.45;;;2.00;;
28714;SDS011;15886;49.170;14.572;2022-10-16T16:15:09;11.05;;;3.00;;
28714;SDS011;15886;49.170;14.572;2022-10-16T16:17:38;11.70;;;7.60;;
28714;SDS011;15886;49.170;14.572;2022-10-16T16:20:06;34.95;;;31.15;;
28714;SDS011;15886;49.170;14.572;2022-10-16T16:22:35;33.38;;;23.95;;
28714;SDS011;15886;49.170;14.572;2022-10-16T16:26:01;24.15;;;15.60;;
28714;SDS011;15886;49.170;14.572;2022-10-16T16:28:34;24.63;;;13.18;;
28714;SDS011;15886;49.170;14.572;2022-10-16T16:31:04;19.25;;;11.18;;
28714;SDS011;15886;49.170;14.572;2022-10-16T16:42:11;18.00;;;12.02;;
28714;SDS011;15886;49.170;14.572;2022-10-16T16:44:44;18.05;;;12.57;;
28714;SDS011;15886;49.170;14.572;2022-10-16T16:47:12;38.42;;;12.02;;
28714;SDS011;15886;49.170;14.572;2022-10-16T16:49:41;17.35;;;12.30;;
28714;SDS011;15886;49.170;14.572;2022-10-16T16:52:13;24.15;;;14.20;;
28714;SDS011;15886;49.170;14.572;2022-10-16T17:16:12;26.98;;;10.32;;
28714;SDS011;15886;49.170;14.572;2022-10-16T17:18:52;15.80;;;9.80;;
28714;SDS011;15886;49.170;14.572;2022-10-16T17:21:20;18.67;;;9.70;;
28714;SDS011;15886;49.170;14.572;2022-10-16T17:23:50;16.27;;;9.35;;
28714;SDS011;15886;49.170;14.572;2022-10-16T17:26:21;20.23;;;8.82;;
28714;SDS011;15886;49.170;14.572;2022-10-16T17:28:55;13.15;;;8.13;;
28714;SDS011;15886;49.170;14.572;2022-10-16T17:31:31;48.72;;;39.72;;
28714;SDS011;15886;49.170;14.572;2022-10-16T17:34:02;30.77;;;21.73;;
28714;SDS011;15886;49.170;14.572;2022-10-16T17:36:32;21.50;;;12.05;;
28714;SDS011;15886;49.170;14.572;2022-10-16T17:39:05;13.18;;;7.75;;
28714;SDS011;15886;49.170;14.572;2022-10-16T17:41:37;15.10;;;9.65;;
28714;SDS011;15886;49.170;14.572;2022-10-16T17:44:06;16.50;;;7.82;;
28714;SDS011;15886;49.170;14.572;2022-10-16T17:46:34;12.70;;;7.00;;
28714;SDS011;15886;49.170;14.572;2022-10-16T17:49:03;12.82;;;8.35;;
28714;SDS011;15886;49.170;14.572;2022-10-16T17:51:32;15.88;;;8.82;;
28714;SDS011;15886;49.170;14.572;2022-10-16T17:54:00;13.13;;;7.00;;
28714;SDS011;15886;49.170;14.572;2022-10-16T17:56:29;13.02;;;6.10;;
28714;SDS011;15886;49.170;14.572;2022-10-16T17:58:58;10.93;;;5.85;;
28714;SDS011;15886;49.170;14.572;2022-10-16T18:01:29;9.57;;;5.80;;
28714;SDS011;15886;49.170;14.572;2022-10-16T18:03:59;28.90;;;20.27;;
28714;SDS011;15886;49.170;14.572;2022-10-16T18:06:28;23.52;;;17.63;;
28714;SDS011;15886;49.170;14.572;2022-10-16T18:09:00;56.50;;;33.90;;
28714;SDS011;15886;49.170;14.572;2022-10-16T18:11:30;93.35;;;46.78;;
28714;SDS011;15886;49.170;14.572;2022-10-16T18:13:58;53.63;;;38.72;;
28714;SDS011;15886;49.170;14.572;2022-10-16T18:16:28;80.53;;;65.78;;
28714;SDS011;15886;49.170;14.572;2022-10-16T18:18:56;73.93;;;51.42;;
28714;SDS011;15886;49.170;14.572;2022-10-16T18:21:25;40.17;;;32.13;;
28714;SDS011;15886;49.170;14.572;2022-10-16T18:23:55;19.05;;;13.68;;
28714;SDS011;15886;49.170;14.572;2022-10-16T18:26:24;34.45;;;17.27;;
28714;SDS011;15886;49.170;14.572;2022-10-16T18:28:54;18.70;;;13.18;;
28714;SDS011;15886;49.170;14.572;2022-10-16T18:31:23;18.08;;;12.23;;
28714;SDS011;15886;49.170;14.572;2022-10-16T18:33:52;24.60;;;16.75;;
28714;SDS011;15886;49.170;14.572;2022-10-16T18:36:23;17.75;;;13.63;;
28714;SDS011;15886;49.170;14.572;2022-10-16T18:38:51;17.05;;;12.98;;
28714;SDS011;15886;49.170;14.572;2022-10-16T18:41:21;19.75;;;12.65;;
28714;SDS011;15886;49.170;14.572;2022-10-16T18:43:49;20.45;;;11.80;;
28714;SDS011;15886;49.170;14.572;2022-10-16T18:46:18;21.40;;;12.43;;
28714;SDS011;15886;49.170;14.572;2022-10-16T18:48:47;22.88;;;13.82;;
28714;SDS011;15886;49.170;14.572;2022-10-16T18:51:18;22.58;;;13.85;;
28714;SDS011;15886;49.170;14.572;2022-10-16T18:53:48;18.95;;;12.48;;
28714;SDS011;15886;49.170;14.572;2022-10-16T18:56:18;23.17;;;11.57;;
28714;SDS011;15886;49.170;14.572;2022-10-16T18:58:46;12.88;;;10.68;;
28714;SDS011;15886;49.170;14.572;2022-10-16T19:01:17;15.60;;;9.85;;
28714;SDS011;15886;49.170;14.572;2022-10-16T19:03:54;16.25;;;9.20;;
28714;SDS011;15886;49.170;14.572;2022-10-16T19:06:22;13.55;;;9.32;;
28714;SDS011;15886;49.170;14.572;2022-10-16T19:08:53;12.15;;;8.48;;
28714;SDS011;15886;49.170;14.572;2022-10-16T19:11:22;12.27;;;8.77;;
28714;SDS011;15886;49.170;14.572;2022-10-16T19:13:52;25.52;;;10.40;;
28714;SDS011;15886;49.170;14.572;2022-10-16T19:16:24;22.42;;;11.50;;
28714;SDS011;15886;49.170;14.572;2022-10-16T19:18:53;16.48;;;12.32;;
28714;SDS011;15886;49.170;14.572;2022-10-16T19:21:23;20.05;;;14.18;;
28714;SDS011;15886;49.170;14.572;2022-10-16T19:23:52;24.65;;;15.68;;
28714;SDS011;15886;49.170;14.572;2022-10-16T19:26:21;30.02;;;17.58;;
28714;SDS011;15886;49.170;14.572;2022-10-16T19:28:51;27.08;;;16.88;;
28714;SDS011;15886;49.170;14.572;2022-10-16T19:31:20;24.80;;;16.83;;
28714;SDS011;15886;49.170;14.572;2022-10-16T19:33:52;24.52;;;17.05;;
28714;SDS011;15886;49.170;14.572;2022-10-16T19:36:22;24.42;;;14.75;;
28714;SDS011;15886;49.170;14.572;2022-10-16T19:38:55;31.70;;;20.40;;
28714;SDS011;15886;49.170;14.572;2022-10-16T19:41:24;35.83;;;23.58;;
28714;SDS011;15886;49.170;14.572;2022-10-16T19:43:53;34.55;;;22.08;;
28714;SDS011;15886;49.170;14.572;2022-10-16T19:46:22;38.20;;;24.42;;
28714;SDS011;15886;49.170;14.572;2022-10-16T19:48:57;36.50;;;24.33;;
28714;SDS011;15886;49.170;14.572;2022-10-16T19:51:25;35.25;;;21.67;;
28714;SDS011;15886;49.170;14.572;2022-10-16T19:53:55;31.65;;;20.65;;
28714;SDS011;15886;49.170;14.572;2022-10-16T19:56:25;32.28;;;21.02;;
28714;SDS011;15886;49.170;14.572;2022-10-16T19:58:54;32.70;;;21.00;;
28714;SDS011;15886;49.170;14.572;2022-10-16T20:01:24;30.58;;;19.98;;
28714;SDS011;15886;49.170;14.572;2022-10-16T20:03:53;32.25;;;20.08;;
28714;SDS011;15886;49.170;14.572;2022-10-16T20:06:21;36.28;;;21.52;;
28714;SDS011;15886;49.170;14.572;2022-10-16T20:08:50;34.42;;;21.83;;
28714;SDS011;15886;49.170;14.572;2022-10-16T20:11:20;34.42;;;21.70;;
28714;SDS011;15886;49.170;14.572;2022-10-16T20:13:48;34.25;;;22.98;;
28714;SDS011;15886;49.170;14.572;2022-10-16T20:16:17;35.17;;;22.67;;
28714;SDS011;15886;49.170;14.572;2022-10-16T20:18:47;35.38;;;22.83;;
28714;SDS011;15886;49.170;14.572;2022-10-16T20:21:17;32.65;;;22.95;;
28714;SDS011;15886;49.170;14.572;2022-10-16T20:23:46;35.53;;;23.48;;
28714;SDS011;15886;49.170;14.572;2022-10-16T20:26:15;50.67;;;26.35;;
28714;SDS011;15886;49.170;14.572;2022-10-16T20:28:43;36.72;;;26.15;;
28714;SDS011;15886;49.170;14.572;2022-10-16T20:31:16;40.83;;;25.25;;
28714;SDS011;15886;49.170;14.572;2022-10-16T20:33:49;35.92;;;24.63;;
28714;SDS011;15886;49.170;14.572;2022-10-16T20:36:18;38.53;;;26.80;;
28714;SDS011;15886;49.170;14.572;2022-10-16T20:38:47;37.47;;;25.23;;
28714;SDS011;15886;49.170;14.572;2022-10-16T20:41:16;45.42;;;28.75;;
28714;SDS011;15886;49.170;14.572;2022-10-16T20:43:45;43.70;;;27.70;;
28714;SDS011;15886;49.170;14.572;2022-10-16T20:46:16;37.83;;;26.40;;
28714;SDS011;15886;49.170;14.572;2022-10-16T20:48:45;42.72;;;28.17;;
28714;SDS011;15886;49.170;14.572;2022-10-16T20:51:15;39.63;;;28.15;;
28714;SDS011;15886;49.170;14.572;2022-10-16T20:53:44;44.17;;;28.50;;
28714;SDS011;15886;49.170;14.572;2022-10-16T20:56:13;45.92;;;30.50;;
28714;SDS011;15886;49.170;14.572;2022-10-16T20:58:44;45.30;;;29.52;;
28714;SDS011;15886;49.170;14.572;2022-10-16T21:01:13;48.75;;;28.30;;
28714;SDS011;15886;49.170;14.572;2022-10-16T21:03:43;39.67;;;29.15;;
28714;SDS011;15886;49.170;14.572;2022-10-16T21:06:11;43.95;;;29.77;;
28714;SDS011;15886;49.170;14.572;2022-10-16T21:08:40;46.47;;;29.13;;
28714;SDS011;15886;49.170;14.572;2022-10-16T21:11:10;45.95;;;28.92;;
28714;SDS011;15886;49.170;14.572;2022-10-16T21:13:39;50.28;;;30.63;;
28714;SDS011;15886;49.170;14.572;2022-10-16T21:16:08;51.83;;;28.67;;
28714;SDS011;15886;49.170;14.572;2022-10-16T21:18:37;50.28;;;27.02;;
28714;SDS011;15886;49.170;14.572;2022-10-16T21:21:09;45.80;;;29.48;;
28714;SDS011;15886;49.170;14.572;2022-10-16T21:23:38;43.67;;;30.13;;
28714;SDS011;15886;49.170;14.572;2022-10-16T21:26:06;46.83;;;32.05;;
28714;SDS011;15886;49.170;14.572;2022-10-16T21:28:35;47.35;;;30.35;;
28714;SDS011;15886;49.170;14.572;2022-10-16T21:31:14;47.25;;;33.50;;
28714;SDS011;15886;49.170;14.572;2022-10-16T21:33:47;46.40;;;30.02;;
28714;SDS011;15886;49.170;14.572;2022-10-16T21:36:17;47.00;;;30.67;;
28714;SDS011;15886;49.170;14.572;2022-10-16T21:38:46;47.95;;;29.35;;
28714;SDS011;15886;49.170;14.572;2022-10-16T21:41:18;47.53;;;30.80;;
28714;SDS011;15886;49.170;14.572;2022-10-16T21:43:47;46.53;;;29.83;;
28714;SDS011;15886;49.170;14.572;2022-10-16T21:46:17;44.22;;;31.33;;
28714;SDS011;15886;49.170;14.572;2022-10-16T21:48:45;50.72;;;31.20;;
28714;SDS011;15886;49.170;14.572;2022-10-16T21:51:14;49.20;;;32.47;;
28714;SDS011;15886;49.170;14.572;2022-10-16T21:53:42;51.72;;;30.02;;
28714;SDS011;15886;49.170;14.572;2022-10-16T21:56:11;48.05;;;30.23;;
28714;SDS011;15886;49.170;14.572;2022-10-16T21:58:40;51.85;;;29.77;;
28714;SDS011;15886;49.170;14.572;2022-10-16T22:01:09;54.88;;;33.22;;
28714;SDS011;15886;49.170;14.572;2022-10-16T22:03:38;47.90;;;32.03;;
28714;SDS011;15886;49.170;14.572;2022-10-16T22:06:07;50.35;;;31.60;;
28714;SDS011;15886;49.170;14.572;2022-10-16T22:08:35;44.88;;;31.00;;
28714;SDS011;15886;49.170;14.572;2022-10-16T22:11:05;46.63;;;32.80;;
28714;SDS011;15886;49.170;14.572;2022-10-16T22:13:33;53.47;;;32.00;;
28714;SDS011;15886;49.170;14.572;2022-10-16T22:16:02;47.22;;;32.97;;
28714;SDS011;15886;49.170;14.572;2022-10-16T22:18:31;49.10;;;28.40;;
28714;SDS011;15886;49.170;14.572;2022-10-16T22:21:00;50.78;;;32.22;;
28714;SDS011;15886;49.170;14.572;2022-10-16T22:23:28;50.63;;;32.53;;
28714;SDS011;15886;49.170;14.572;2022-10-16T22:26:01;49.15;;;33.80;;
28714;SDS011;15886;49.170;14.572;2022-10-16T22:28:29;56.22;;;35.55;;
28714;SDS011;15886;49.170;14.572;2022-10-16T22:31:02;50.47;;;35.60;;
28714;SDS011;15886;49.170;14.572;2022-10-16T22:33:31;56.03;;;35.42;;
28714;SDS011;15886;49.170;14.572;2022-10-16T22:35:59;54.58;;;38.17;;
28714;SDS011;15886;49.170;14.572;2022-10-16T22:38:28;57.75;;;37.50;;
28714;SDS011;15886;49.170;14.572;2022-10-16T22:41:02;58.40;;;37.40;;
28714;SDS011;15886;49.170;14.572;2022-10-16T22:43:33;59.13;;;38.10;;
28714;SDS011;15886;49.170;14.572;2022-10-16T22:46:02;55.60;;;37.08;;
28714;SDS011;15886;49.170;14.572;2022-10-16T22:48:31;57.10;;;36.55;;
28714;SDS011;15886;49.170;14.572;2022-10-16T22:50:59;51.17;;;35.72;;
28714;SDS011;15886;49.170;14.572;2022-10-16T22:53:27;47.15;;;34.47;;
28714;SDS011;15886;49.170;14.572;2022-10-16T22:55:56;54.75;;;37.05;;
28714;SDS011;15886;49.170;14.572;2022-10-16T22:58:25;58.30;;;34.38;;
28714;SDS011;15886;49.170;14.572;2022-10-16T23:00:54;50.22;;;35.72;;
28714;SDS011;15886;49.170;14.572;2022-10-16T23:03:27;50.35;;;35.22;;
28714;SDS011;15886;49.170;14.572;2022-10-16T23:06:04;48.25;;;33.30;;
28714;SDS011;15886;49.170;14.572;2022-10-16T23:08:42;45.70;;;32.67;;
28714;SDS011;15886;49.170;14.572;2022-10-16T23:11:13;53.25;;;33.78;;
28714;SDS011;15886;49.170;14.572;2022-10-16T23:13:53;50.92;;;33.30;;
28714;SDS011;15886;49.170;14.572;2022-10-16T23:16:28;46.47;;;31.95;;
28714;SDS011;15886;49.170;14.572;2022-10-16T23:18:57;45.65;;;29.90;;
28714;SDS011;15886;49.170;14.572;2022-10-16T23:21:25;45.17;;;28.23;;
28714;SDS011;15886;49.170;14.572;2022-10-16T23:23:54;42.90;;;28.80;;
28714;SDS011;15886;49.170;14.572;2022-10-16T23:26:24;55.10;;;31.58;;
28714;SDS011;15886;49.170;14.572;2022-10-16T23:28:56;49.75;;;31.85;;
28714;SDS011;15886;49.170;14.572;2022-10-16T23:31:26;46.40;;;31.50;;
28714;SDS011;15886;49.170;14.572;2022-10-16T23:33:58;42.13;;;29.05;;
28714;SDS011;15886;49.170;14.572;2022-10-16T23:36:26;48.67;;;33.58;;
28714;SDS011;15886;49.170;14.572;2022-10-16T23:38:55;44.95;;;30.05;;
28714;SDS011;15886;49.170;14.572;2022-10-16T23:41:23;46.13;;;32.53;;
28714;SDS011;15886;49.170;14.572;2022-10-16T23:43:51;53.05;;;31.63;;
28714;SDS011;15886;49.170;14.572;2022-10-16T23:46:20;54.20;;;33.45;;
28714;SDS011;15886;49.170;14.572;2022-10-16T23:48:49;42.25;;;29.42;;
28714;SDS011;15886;49.170;14.572;2022-10-16T23:51:17;40.42;;;27.35;;
28714;SDS011;15886;49.170;14.572;2022-10-16T23:53:48;51.00;;;29.27;;
28714;SDS011;15886;49.170;14.572;2022-10-16T23:56:19;42.25;;;29.27;;
28714;SDS011;15886;49.170;14.572;2022-10-16T23:58:55;49.28;;;32.47;;
